Concord, Texas
Current Conditions -  °F | °C
As of 5:35 PM on Sunday 28 Dec 2014 (Local Time) from KLXY Reporting Station
Overcast Overcast  
Wind Chill: 41°   Ceiling: 7500
Heat Index: 41°   Visibility: 10mi
Dew Point: 27°   Wind: 0mph
Humidity: 57%   Direction: NA
Pressure: 30.16"   Gusts: NA
Location:  31.26°N, 96.14°W
Report Text: KLXY 282335Z AUTO 00000KT 10SM SCT045 SCT065 OVC075 05/M03 A3016 RMK AO2 T00501028
Loading
Personal Weather Stations






























Interactive Weather Map New forecast layout! Learn more

10-Day Weather Forecast

Advertisements
Track Severe Weather on mobile